LFOZ

Orléans-Saint-Denis-de-l'Hôtel Airport

Airport
ICAO code
LFOZ
Summary
ICAO Region
EUR
ICAO Territory
Location

, Centre

Serving
Orleans
Elevation
396 ft
Coordinates
47° 53' 49" N , 2° 9' 48" E
Metar
Observation
LFOZ 110600Z AUTO 05005KT CAVOK 20/08 Q1018
Station
Orléans - Saint-Denis-de-l'Hôtel
Date/Time
2022-08-11 06:00:00
Wind direction
50°
Wind speed
05 kts
Lowest cloud amount
clouds and visibility OK
Temperature
20°C
Dew point
8°C
Humidity
45%
QNH
1018 hPa
Weather condition
n/a

Runways

Designator Length Width Surface Rops
5/23 1392 30 ASP No/No

Airport map

Aerial View

SKYbrary Partners:

Safety knowledge contributed by: